Time;durP1;ratioP1;P1;durP2;ratioP2;P2;SDS_P1;SDS_P2;PMS_P1;PMS_P2;Temp;Humidity;BMP_temperature;BMP_pressure;BME280_temperature;BME280_humidity;BME280_pressure;Samples;Min_cycle;Max_cycle;Signal;HPM_P1;HPM_P2
2022/09/14 00:01:18;;;;;;;10.57;2.33;;;;;;;14.92;82.52;100024.97;5079013;28;20047;-66
2022/09/14 00:03:55;;;;;;;8.00;1.73;;;;;;;14.94;82.62;100020.34;5062837;28;20071;-67
2022/09/14 00:06:23;;;;;;;8.65;2.22;;;;;;;14.93;82.22;100023.97;5039079;28;20054;-67
2022/09/14 00:08:51;;;;;;;4.75;1.60;;;;;;;14.94;82.59;100030.94;5069772;28;20139;-68
2022/09/14 00:11:20;;;;;;;9.35;1.63;;;;;;;14.93;81.80;100026.63;5074699;28;20040;-66
2022/09/14 00:13:47;;;;;;;4.60;1.30;;;;;;;14.91;82.35;100028.59;5082441;28;20056;-65
2022/09/14 00:16:20;;;;;;;8.10;1.50;;;;;;;14.81;82.90;100022.38;5075914;28;20048;-66
2022/09/14 00:18:52;;;;;;;4.88;1.50;;;;;;;14.86;82.34;100020.16;5053301;28;20401;-66
2022/09/14 00:21:20;;;;;;;14.50;1.92;;;;;;;14.78;82.81;100012.91;5071704;28;20047;-66
2022/09/14 00:23:47;;;;;;;12.40;2.55;;;;;;;14.73;83.11;100016.94;5033304;28;20044;-66
2022/09/14 00:26:17;;;;;;;12.25;1.73;;;;;;;14.69;83.20;100011.88;5050553;28;20048;-67
2022/09/14 00:28:47;;;;;;;6.32;1.40;;;;;;;14.66;83.51;100003.34;5075437;28;20105;-67
2022/09/14 00:31:14;;;;;;;12.95;2.20;;;;;;;14.68;83.42;100004.91;5072120;28;20044;-66
2022/09/14 00:33:43;;;;;;;9.82;1.67;;;;;;;14.67;83.13;99995.25;5048455;28;20419;-66
2022/09/14 00:36:12;;;;;;;10.13;2.10;;;;;;;14.63;83.59;99999.19;5050054;28;20041;-67
2022/09/14 00:38:40;;;;;;;9.68;1.95;;;;;;;14.60;83.77;99999.44;5026598;28;20052;-67
2022/09/14 00:41:12;;;;;;;6.85;1.83;;;;;;;14.60;83.77;99998.59;5051871;28;20044;-66
2022/09/14 00:44:03;;;;;;;8.20;1.80;;;;;;;14.61;83.59;99993.16;5071353;28;20531;-65
2022/09/14 00:46:35;;;;;;;9.13;1.77;;;;;;;14.56;83.67;99990.06;5070239;28;20075;-66
2022/09/14 00:49:04;;;;;;;6.22;2.05;;;;;;;14.53;83.85;99992.97;5067730;28;20052;-66
2022/09/14 00:51:32;;;;;;;6.38;1.90;;;;;;;14.55;83.86;99991.03;5070347;28;20071;-65
2022/09/14 00:54:02;;;;;;;7.13;2.05;;;;;;;14.56;83.61;99987.41;5044132;28;20533;-66
2022/09/14 00:56:29;;;;;;;6.88;1.40;;;;;;;14.54;83.68;99976.09;5050097;28;20068;-66
2022/09/14 00:58:57;;;;;;;9.35;2.15;;;;;;;14.57;83.42;99981.13;5076705;28;20052;-66
2022/09/14 01:01:25;;;;;;;7.35;2.28;;;;;;;14.57;83.10;99986.44;5063268;28;20045;-65
2022/09/14 01:03:52;;;;;;;7.20;1.50;;;;;;;14.50;83.72;99973.84;5071613;28;20419;-67
2022/09/14 01:06:29;;;;;;;8.38;2.67;;;;;;;14.46;83.62;99972.41;5034519;28;20056;-66
2022/09/14 01:09:06;;;;;;;11.85;1.80;;;;;;;14.42;83.88;99972.66;5054388;28;20675;-66
2022/09/14 01:11:43;;;;;;;8.48;1.67;;;;;;;14.35;84.35;99973.31;5065920;28;20053;-67
2022/09/14 01:14:23;;;;;;;13.93;2.17;;;;;;;14.35;84.08;99965.38;5071070;28;20056;-67
2022/09/14 01:17:06;;;;;;;8.35;1.70;;;;;;;14.31;84.72;99971.91;5053145;28;20052;-66
2022/09/14 01:19:42;;;;;;;7.30;1.58;;;;;;;14.42;83.74;99970.03;5068340;28;20143;-66
2022/09/14 01:22:14;;;;;;;12.00;1.98;;;;;;;14.34;84.42;99969.00;5052934;28;20500;-66
2022/09/14 01:24:47;;;;;;;7.28;1.63;;;;;;;14.30;84.69;99962.28;5049594;28;20052;-67
2022/09/14 01:27:34;;;;;;;7.43;1.70;;;;;;;14.34;84.22;99961.88;5056812;28;20063;-66
2022/09/14 01:30:06;;;;;;;6.05;1.45;;;;;;;14.34;84.07;99963.69;5053435;28;20461;-65
2022/09/14 01:33:01;;;;;;;9.63;1.75;;;;;;;14.31;84.55;99967.44;5075371;28;20404;-66
2022/09/14 01:35:30;;;;;;;9.77;1.70;;;;;;;14.27;84.67;99968.66;5064655;28;20047;-67
2022/09/14 01:38:06;;;;;;;10.10;1.88;;;;;;;14.22;84.89;99967.38;5064968;28;20071;-67
2022/09/14 01:40:46;;;;;;;7.38;1.50;;;;;;;14.22;84.94;99965.56;5077091;28;20067;-66
2022/09/14 01:43:17;;;;;;;4.97;1.27;;;;;;;14.16;85.52;99955.50;5080621;28;20946;-66
2022/09/14 01:45:50;;;;;;;5.10;1.40;;;;;;;14.13;85.51;99961.88;5062186;28;20098;-66
2022/09/14 01:48:22;;;;;;;7.65;1.40;;;;;;;14.13;85.73;99961.88;5055621;28;20064;-66
2022/09/14 01:50:52;;;;;;;8.65;1.83;;;;;;;14.16;85.79;99963.44;5070823;28;20132;-66
2022/09/14 01:53:36;;;;;;;9.15;1.70;;;;;;;14.15;85.57;99959.13;5057871;28;20056;-66
2022/09/14 01:56:14;;;;;;;9.30;1.42;;;;;;;14.12;85.88;99962.03;5047008;28;20052;-66
2022/09/14 01:58:47;;;;;;;10.07;2.50;;;;;;;14.15;85.37;99975.00;5067446;28;20056;-67
2022/09/14 02:01:20;;;;;;;4.47;1.15;;;;;;;14.08;86.10;99965.91;5069231;28;20497;-66
2022/09/14 02:03:51;;;;;;;7.05;1.30;;;;;;;14.06;86.58;99970.50;5055374;28;20036;-66
2022/09/14 02:06:27;;;;;;;8.80;1.48;;;;;;;14.06;86.39;99973.97;5051653;28;20592;-66
2022/09/14 02:08:55;;;;;;;6.32;1.23;;;;;;;14.06;86.02;99965.19;5045764;28;20056;-66
2022/09/14 02:11:22;;;;;;;7.95;1.48;;;;;;;14.08;86.03;99972.03;5036380;28;20649;-66
2022/09/14 02:13:49;;;;;;;9.13;1.75;;;;;;;14.00;87.91;99971.00;5054722;28;20523;-66
2022/09/14 02:16:17;;;;;;;9.13;1.50;;;;;;;13.97;86.85;99964.16;5069871;28;20052;-66
2022/09/14 02:18:44;;;;;;;7.15;1.38;;;;;;;14.01;86.29;99962.09;5038561;28;20057;-66
2022/09/14 02:21:22;;;;;;;4.75;1.05;;;;;;;14.04;86.75;99961.81;5069476;28;20045;-66
2022/09/14 02:23:49;;;;;;;10.15;2.22;;;;;;;14.00;87.52;99963.88;5048524;28;20051;-67
2022/09/14 02:26:18;;;;;;;10.10;1.70;;;;;;;13.98;87.95;99965.00;5071542;28;20055;-66
2022/09/14 02:28:45;;;;;;;8.65;1.58;;;;;;;13.91;87.87;99962.00;5049749;28;20061;-66
2022/09/14 02:31:22;;;;;;;7.90;1.98;;;;;;;13.94;88.50;99962.59;5052969;28;20041;-67
2022/09/14 02:33:58;;;;;;;11.50;1.80;;;;;;;13.90;88.39;99966.47;5069488;28;20479;-65
2022/09/14 02:36:40;;;;;;;8.27;1.98;;;;;;;13.83;89.38;99959.19;5047752;28;20057;-66
2022/09/14 02:39:23;;;;;;;10.00;1.58;;;;;;;13.79;89.78;99960.41;5046392;28;20508;-67
2022/09/14 02:42:00;;;;;;;8.10;1.70;;;;;;;13.80;89.28;99956.78;5033501;28;20041;-66
2022/09/14 02:44:36;;;;;;;7.15;1.88;;;;;;;13.76;89.50;99948.25;5047381;28;20060;-67
2022/09/14 02:47:32;;;;;;;7.65;1.63;;;;;;;13.76;89.84;99947.41;5049598;28;20216;-68
2022/09/14 02:50:28;;;;;;;10.73;1.52;;;;;;;13.74;90.61;99942.28;5064932;28;20048;-67
2022/09/14 02:53:03;;;;;;;11.67;1.73;;;;;;;13.68;90.84;99943.59;5030254;28;20048;-67
2022/09/14 02:55:34;;;;;;;9.02;1.75;;;;;;;13.68;90.88;99946.22;5065445;28;20479;-67
2022/09/14 02:58:07;;;;;;;8.52;2.33;;;;;;;13.69;90.47;99939.16;5049916;28;20060;-67
2022/09/14 03:00:39;;;;;;;4.28;1.25;;;;;;;13.67;90.37;99943.72;5059500;28;20065;-66
2022/09/14 03:03:08;;;;;;;7.65;1.75;;;;;;;13.65;90.83;99943.88;5048112;28;20369;-66
2022/09/14 03:05:36;;;;;;;8.68;1.70;;;;;;;13.61;90.92;99950.38;5076834;28;20056;-68
2022/09/14 03:08:03;;;;;;;6.38;1.63;;;;;;;13.56;91.96;99947.28;5053934;28;20049;-67
2022/09/14 03:10:31;;;;;;;6.65;1.60;;;;;;;13.53;92.38;99946.69;5055556;28;20048;-67
2022/09/14 03:12:59;;;;;;;10.30;1.63;;;;;;;13.51;92.70;99941.53;5059590;28;20519;-67
2022/09/14 03:15:26;;;;;;;5.43;1.55;;;;;;;13.48;93.08;99944.41;5051352;28;20107;-67
2022/09/14 03:17:54;;;;;;;8.30;1.85;;;;;;;13.46;93.18;99940.19;5046960;28;20048;-66
2022/09/14 03:20:25;;;;;;;10.20;1.90;;;;;;;13.45;93.22;99942.00;5064853;28;20056;-67
2022/09/14 03:22:52;;;;;;;7.90;1.85;;;;;;;13.44;93.40;99945.63;5065726;28;20507;-67
2022/09/14 03:25:21;;;;;;;4.88;1.42;;;;;;;13.41;92.84;99951.16;5083271;28;20056;-66
2022/09/14 03:27:53;;;;;;;8.25;1.60;;;;;;;13.46;92.86;99948.13;5065708;28;20466;-67
2022/09/14 03:30:21;;;;;;;10.50;1.88;;;;;;;13.42;93.36;99944.91;5071744;28;20801;-66
2022/09/14 03:32:48;;;;;;;7.43;1.60;;;;;;;13.39;93.59;99943.34;5069838;28;20523;-67
2022/09/14 03:35:16;;;;;;;7.13;2.22;;;;;;;13.41;93.46;99941.41;5070647;28;20052;-66
2022/09/14 03:37:44;;;;;;;19.13;2.42;;;;;;;13.41;93.42;99940.56;5050759;28;20056;-66
2022/09/14 03:40:13;;;;;;;5.38;1.45;;;;;;;13.38;94.12;99936.41;5066098;28;20052;-65
2022/09/14 03:42:47;;;;;;;;;;;;;;;13.43;93.44;99941.31;5058705;28;20399;-67
2022/09/14 03:45:15;;;;;;;8.90;1.50;;;;;;;13.46;93.19;99933.09;5046085;28;19921;-66
2022/09/14 03:47:42;;;;;;;6.75;1.45;;;;;;;13.46;93.01;99932.25;5049489;28;20063;-66
2022/09/14 03:50:11;;;;;;;10.82;1.95;;;;;;;13.45;92.89;99934.06;5031808;28;20045;-66
2022/09/14 03:52:38;;;;;;;6.25;1.90;;;;;;;13.43;93.48;99928.91;5066698;28;20048;-67
2022/09/14 03:55:08;;;;;;;7.07;2.28;;;;;;;13.46;93.24;99930.47;5049728;28;20525;-66
2022/09/14 03:57:35;;;;;;;7.32;1.65;;;;;;;13.48;93.14;99933.84;5070809;28;20065;-67
2022/09/14 04:00:05;;;;;;;8.55;1.67;;;;;;;13.43;94.13;99933.38;5061305;28;20053;-67
2022/09/14 04:02:32;;;;;;;6.75;1.40;;;;;;;13.38;94.47;99922.34;5060921;28;20032;-66
2022/09/14 04:04:59;;;;;;;8.38;1.90;;;;;;;13.32;95.14;99926.28;5066837;28;20501;-66
2022/09/14 04:07:26;;;;;;;9.30;1.33;;;;;;;13.34;95.53;99931.47;5066633;28;20049;-66
2022/09/14 04:09:54;;;;;;;7.63;1.98;;;;;;;13.35;94.55;99928.69;5062405;28;20052;-66
2022/09/14 04:12:21;;;;;;;9.50;1.95;;;;;;;13.34;94.84;99927.03;5064158;28;20060;-65
2022/09/14 04:14:48;;;;;;;9.98;2.20;;;;;;;13.32;95.60;99933.41;5064845;28;20164;-66
2022/09/14 04:17:16;;;;;;;11.05;1.77;;;;;;;13.33;95.20;99935.09;5046833;28;21406;-66
2022/09/14 04:19:43;;;;;;;6.88;1.67;;;;;;;13.30;95.31;99941.47;5066081;28;20048;-66
2022/09/14 04:22:10;;;;;;;7.80;1.75;;;;;;;13.31;95.12;99939.66;5049114;28;20388;-66
2022/09/14 04:24:37;;;;;;;11.00;2.03;;;;;;;13.28;94.69;99937.25;5065679;28;20532;-67
2022/09/14 04:27:04;;;;;;;6.30;1.38;;;;;;;13.25;95.31;99929.59;5046869;28;20177;-66
2022/09/14 04:29:32;;;;;;;9.07;2.00;;;;;;;13.25;94.85;99932.22;5048864;28;20052;-67
2022/09/14 04:31:59;;;;;;;7.13;1.85;;;;;;;13.26;95.55;99920.69;5056869;28;20105;-66
2022/09/14 04:34:26;;;;;;;7.22;1.63;;;;;;;13.25;95.02;99926.94;5062308;28;20057;-66
2022/09/14 04:36:53;;;;;;;8.90;1.75;;;;;;;13.26;95.52;99924.16;5068791;28;20484;-66
2022/09/14 04:39:21;;;;;;;11.77;1.70;;;;;;;13.21;96.06;99920.19;5067759;28;20049;-66
2022/09/14 04:41:48;;;;;;;11.52;2.75;;;;;;;13.23;95.62;99931.50;5062268;28;20052;-65
2022/09/14 04:44:15;;;;;;;11.80;2.05;;;;;;;13.25;96.01;99930.41;5052721;28;20052;-66
2022/09/14 04:46:43;;;;;;;8.18;1.90;;;;;;;13.22;96.20;99935.06;5070696;28;20757;-66
2022/09/14 04:49:17;;;;;;;5.65;1.80;;;;;;;13.18;96.73;99937.13;5067547;28;20159;-66
2022/09/14 04:51:44;;;;;;;9.60;2.05;;;;;;;13.17;96.54;99924.88;5051445;28;20500;-66
2022/09/14 04:54:13;;;;;;;10.38;2.00;;;;;;;13.13;97.18;99921.63;5068488;28;20108;-66
2022/09/14 04:56:41;;;;;;;7.38;2.33;;;;;;;13.12;97.38;99916.47;5069461;28;20044;-65
2022/09/14 04:59:09;;;;;;;16.77;2.15;;;;;;;13.12;97.33;99919.97;5071461;28;20052;-66
2022/09/14 05:01:42;;;;;;;8.43;1.70;;;;;;;13.14;97.24;99920.66;5071262;28;20055;-66
2022/09/14 05:04:10;;;;;;;8.40;2.20;;;;;;;13.17;96.45;99914.31;5068277;28;20071;-66
2022/09/14 05:06:39;;;;;;;6.95;1.85;;;;;;;13.15;96.47;99911.81;5073240;28;20117;-67
2022/09/14 05:09:11;;;;;;;6.45;1.40;;;;;;;13.12;97.05;99906.75;5067905;28;20052;-66
2022/09/14 05:11:39;;;;;;;9.90;1.98;;;;;;;13.13;97.32;99905.78;5069622;28;20053;-67
2022/09/14 05:14:08;;;;;;;9.05;2.00;;;;;;;13.12;97.66;99906.75;5056709;28;20051;-66
2022/09/14 05:16:36;;;;;;;7.57;1.65;;;;;;;13.12;97.65;99908.56;5030979;28;20068;-66
2022/09/14 05:19:06;;;;;;;7.25;1.92;;;;;;;13.13;97.10;99903.13;5050748;28;20639;-66
2022/09/14 05:21:35;;;;;;;10.38;2.08;;;;;;;13.14;97.20;99906.63;5042498;28;20057;-66
2022/09/14 05:24:11;;;;;;;15.23;2.30;;;;;;;13.14;97.61;99911.91;5048229;28;20098;-66
2022/09/14 05:26:38;;;;;;;5.40;1.88;;;;;;;13.16;97.74;99917.91;5017004;28;20100;-66
2022/09/14 05:29:05;;;;;;;5.88;1.88;;;;;;;13.12;98.36;99921.78;5048392;28;20132;-66
2022/09/14 05:31:32;;;;;;;9.43;1.92;;;;;;;13.15;97.57;99917.09;5061390;28;20053;-67
2022/09/14 05:34:00;;;;;;;9.65;2.22;;;;;;;13.21;97.08;99904.34;5058082;28;20059;-67
2022/09/14 05:36:27;;;;;;;7.80;2.40;;;;;;;13.26;97.10;99912.75;5044820;28;20509;-67
2022/09/14 05:38:56;;;;;;;13.55;2.20;;;;;;;13.21;98.02;99907.81;5053547;28;20052;-67
2022/09/14 05:41:23;;;;;;;13.50;2.70;;;;;;;13.20;97.40;99914.06;5034369;28;20076;-67
2022/09/14 05:43:50;;;;;;;20.90;3.05;;;;;;;13.27;96.77;99911.78;5052203;28;20044;-67
2022/09/14 05:46:21;;;;;;;10.63;2.60;;;;;;;13.30;96.79;99914.19;5048334;28;20056;-66
2022/09/14 05:48:50;;;;;;;8.15;3.05;;;;;;;13.28;97.04;99906.38;5053235;28;20049;-66
2022/09/14 05:51:21;;;;;;;12.52;2.97;;;;;;;13.30;96.50;99903.63;5049855;28;20132;-66
2022/09/14 05:53:56;;;;;;;15.50;3.30;;;;;;;13.30;97.67;99908.91;5052559;28;20049;-66
2022/09/14 05:56:28;;;;;;;12.35;2.80;;;;;;;13.28;97.53;99914.28;5032280;28;20057;-66
2022/09/14 05:58:57;;;;;;;15.05;3.53;;;;;;;13.29;97.32;99913.34;5046716;28;20057;-65
2022/09/14 06:01:26;;;;;;;14.60;3.72;;;;;;;13.30;97.68;99912.38;5052127;28;20068;-65
2022/09/14 06:04:01;;;;;;;11.02;3.00;;;;;;;13.31;97.47;99905.28;5040195;28;20033;-66
2022/09/14 06:06:30;;;;;;;12.50;2.78;;;;;;;13.32;97.76;99905.16;5059800;28;20142;-67
2022/09/14 06:08:57;;;;;;;10.85;2.83;;;;;;;13.34;97.58;99897.13;5049657;28;20784;-66
2022/09/14 06:11:27;;;;;;;12.32;2.97;;;;;;;13.34;97.92;99903.25;5065589;28;20505;-66
2022/09/14 06:13:55;;;;;;;10.75;2.42;;;;;;;13.40;97.33;99901.88;5058444;28;20128;-67
2022/09/14 06:16:23;;;;;;;7.50;2.65;;;;;;;13.43;96.82;99899.00;5067318;28;20072;-67
2022/09/14 06:18:51;;;;;;;12.05;3.67;;;;;;;13.49;96.64;99900.28;5028338;28;20057;-66
2022/09/14 06:21:19;;;;;;;11.57;2.95;;;;;;;13.53;96.01;99899.06;5065530;28;20049;-67
2022/09/14 06:23:47;;;;;;;13.20;3.45;;;;;;;13.53;95.97;99893.78;5046995;28;20472;-67
2022/09/14 06:26:15;;;;;;;14.32;3.05;;;;;;;13.58;95.73;99891.59;5052657;28;20497;-66
2022/09/14 06:28:42;;;;;;;16.45;3.05;;;;;;;13.58;96.06;99881.03;5057316;28;20440;-66
2022/09/14 06:31:13;;;;;;;13.82;3.40;;;;;;;13.59;96.39;99888.81;5049852;28;20127;-66
2022/09/14 06:33:44;;;;;;;15.07;3.70;;;;;;;13.61;96.56;99892.19;5062251;28;20049;-66
2022/09/14 06:36:14;;;;;;;9.88;3.28;;;;;;;13.63;96.02;99890.25;5059662;28;20055;-66
2022/09/14 06:38:41;;;;;;;12.93;3.90;;;;;;;13.66;95.89;99882.06;5054286;28;20290;-68
2022/09/14 06:41:11;;;;;;;10.88;3.70;;;;;;;13.67;95.76;99878.44;5069913;28;20049;-67
2022/09/14 06:43:40;;;;;;;12.40;3.47;;;;;;;13.65;95.74;99882.19;5053753;28;20053;-67
2022/09/14 06:46:22;;;;;;;14.13;4.47;;;;;;;13.68;95.83;99881.91;5062779;28;20051;-67
2022/09/14 06:48:53;;;;;;;22.10;4.35;;;;;;;13.70;95.74;99884.47;5045489;28;20063;-67
2022/09/14 06:51:24;;;;;;;11.60;3.10;;;;;;;13.77;95.72;99890.91;5059802;28;20408;-67
2022/09/14 06:53:52;;;;;;;12.95;3.50;;;;;;;13.85;95.40;99885.81;5031732;28;20489;-68
2022/09/14 06:56:20;;;;;;;12.50;3.28;;;;;;;13.95;94.82;99884.03;5069303;28;20117;-67
2022/09/14 06:58:48;;;;;;;14.00;3.03;;;;;;;14.11;94.07;99879.13;5068585;28;20044;-67
2022/09/14 07:01:17;;;;;;;16.10;2.83;;;;;;;14.18;93.64;99880.31;5065222;28;20045;-67
2022/09/14 07:03:45;;;;;;;12.18;2.83;;;;;;;14.19;93.44;99881.97;5066178;28;20060;-66
2022/09/14 07:06:15;;;;;;;12.95;3.10;;;;;;;14.17;93.92;99885.72;5044228;28;20048;-67
2022/09/14 07:08:43;;;;;;;12.85;2.83;;;;;;;14.17;93.33;99894.47;5048140;28;20139;-67
2022/09/14 07:11:11;;;;;;;10.60;3.33;;;;;;;14.18;93.24;99901.47;5050567;28;20515;-66
2022/09/14 07:13:39;;;;;;;14.35;3.20;;;;;;;14.23;93.85;99898.44;5062610;28;20508;-67
2022/09/14 07:16:06;;;;;;;13.43;2.97;;;;;;;14.28;93.71;99890.09;5062886;28;20059;-67
2022/09/14 07:18:34;;;;;;;12.23;3.60;;;;;;;14.31;93.56;99889.81;5065523;28;20056;-67
2022/09/14 07:21:03;;;;;;;12.93;2.80;;;;;;;14.39;92.62;99888.19;5063511;28;20052;-68
2022/09/14 07:23:32;;;;;;;12.95;2.70;;;;;;;14.37;92.43;99884.84;5064185;28;20583;-67
2022/09/14 07:26:06;;;;;;;13.27;3.00;;;;;;;14.41;92.33;99886.25;5043316;28;20070;-67
2022/09/14 07:28:34;;;;;;;13.00;3.38;;;;;;;14.45;91.63;99892.09;5045664;28;20048;-67
2022/09/14 07:31:01;;;;;;;14.13;3.60;;;;;;;14.44;92.25;99898.38;5066949;28;20051;-67
2022/09/14 07:33:28;;;;;;;15.00;4.15;;;;;;;14.49;91.88;99887.41;5062916;28;20048;-67
2022/09/14 07:36:06;;;;;;;16.23;3.10;;;;;;;14.57;91.17;99880.47;5065969;28;20048;-67
2022/09/14 07:38:34;;;;;;;14.10;3.75;;;;;;;14.66;90.48;99884.13;5062774;28;20210;-66
2022/09/14 07:41:20;;;;;;;14.07;3.20;;;;;;;14.64;89.95;99881.63;5059938;28;20045;-67
2022/09/14 07:43:48;;;;;;;14.57;3.50;;;;;;;14.63;89.64;99890.56;5065955;28;20117;-67
2022/09/14 07:46:16;;;;;;;14.23;3.15;;;;;;;14.76;89.20;99884.16;5066731;28;20052;-67
2022/09/14 07:48:43;;;;;;;15.93;3.70;;;;;;;14.82;88.94;99888.94;5064125;28;20049;-67
2022/09/14 07:51:11;;;;;;;27.70;3.58;;;;;;;14.84;88.24;99889.63;5067899;28;20082;-67
2022/09/14 07:53:41;;;;;;;13.00;2.63;;;;;;;14.95;88.40;99889.53;5062227;28;20056;-67
2022/09/14 07:56:09;;;;;;;17.58;4.15;;;;;;;15.03;88.06;99896.78;5063071;28;20091;-67
2022/09/14 07:58:37;;;;;;;16.40;3.13;;;;;;;15.13;86.44;99885.25;5053190;28;20294;-67
2022/09/14 08:01:07;;;;;;;19.67;3.40;;;;;;;15.20;85.90;99891.66;5064745;28;20460;-67
2022/09/14 08:03:38;;;;;;;18.58;4.72;;;;;;;15.20;85.34;99891.66;5063619;28;20056;-67
2022/09/14 08:06:09;;;;;;;13.02;3.55;;;;;;;15.33;85.37;99894.03;5065032;28;20518;-67
2022/09/14 08:08:38;;;;;;;11.85;2.53;;;;;;;15.36;85.32;99895.59;5060810;28;20048;-67
2022/09/14 08:11:10;;;;;;;10.60;2.40;;;;;;;15.41;84.75;99896.00;5068850;28;20051;-67
2022/09/14 08:13:39;;;;;;;11.65;2.78;;;;;;;15.49;83.76;99897.94;5075451;28;20052;-67
2022/09/14 08:16:06;;;;;;;15.95;3.05;;;;;;;15.54;83.88;99893.09;5049805;28;20044;-66
2022/09/14 08:18:35;;;;;;;16.17;2.17;;;;;;;15.62;83.62;99890.53;5076765;28;20504;-66
2022/09/14 08:21:10;;;;;;;9.82;2.65;;;;;;;15.72;82.07;99887.94;5074374;28;20057;-66
2022/09/14 08:23:37;;;;;;;13.52;2.38;;;;;;;15.80;81.89;99888.03;5069946;28;20505;-66
2022/09/14 08:26:09;;;;;;;6.40;1.83;;;;;;;15.83;80.89;99890.41;5076752;28;20523;-67
2022/09/14 08:28:37;;;;;;;12.07;2.08;;;;;;;15.86;79.60;99895.47;5067454;28;20055;-66
2022/09/14 08:31:19;;;;;;;12.40;2.13;;;;;;;15.97;79.67;99894.44;5074370;28;20052;-67
2022/09/14 08:33:52;;;;;;;11.48;1.92;;;;;;;16.07;79.37;99893.44;5070656;28;20044;-67
2022/09/14 08:36:20;;;;;;;9.95;2.58;;;;;;;16.16;79.41;99887.25;5062156;28;20048;-66
2022/09/14 08:38:47;;;;;;;18.27;3.00;;;;;;;16.21;78.39;99878.88;5071215;28;20140;-67
2022/09/14 08:41:19;;;;;;;11.15;2.17;;;;;;;16.23;76.59;99884.88;5080442;28;20052;-67
2022/09/14 08:43:46;;;;;;;12.40;2.85;;;;;;;16.27;76.13;99880.13;5057129;28;20087;-66
2022/09/14 08:46:26;;;;;;;10.43;2.30;;;;;;;16.32;75.67;99868.06;5028873;28;20047;-67
2022/09/14 08:48:53;;;;;;;10.75;1.75;;;;;;;16.35;72.67;99873.09;5061947;28;20076;-67
2022/09/14 08:51:20;;;;;;;10.45;1.90;;;;;;;16.46;71.58;99880.03;5040991;28;20052;-66
2022/09/14 08:53:49;;;;;;;13.68;2.42;;;;;;;16.45;72.28;99873.91;5063204;28;20135;-66
2022/09/14 08:56:33;;;;;;;8.02;2.33;;;;;;;16.43;73.25;99877.66;5046838;28;20052;-66
2022/09/14 08:59:23;;;;;;;13.27;2.53;;;;;;;16.37;70.38;99889.72;5065916;28;20068;-66
2022/09/14 09:02:23;;;;;;;6.53;1.67;;;;;;;16.37;71.27;99879.09;5070974;28;20063;-67
2022/09/14 09:04:58;;;;;;;9.38;1.63;;;;;;;16.40;71.29;99885.94;5056020;28;20041;-66
2022/09/14 09:07:40;;;;;;;9.10;1.73;;;;;;;16.40;70.88;99878.81;5068244;28;20063;-66
2022/09/14 09:10:09;;;;;;;12.75;1.85;;;;;;;16.41;70.75;99875.16;5045280;28;20041;-67
2022/09/14 09:12:48;;;;;;;10.23;2.03;;;;;;;16.34;70.06;99867.91;5038360;28;20057;-67
2022/09/14 09:15:38;;;;;;;13.30;2.78;;;;;;;16.39;71.41;99877.16;5024209;28;20538;-68
2022/09/14 09:18:21;;;;;;;9.20;1.92;;;;;;;16.49;71.47;99873.59;5038716;28;20051;-68
2022/09/14 09:21:00;;;;;;;7.65;1.77;;;;;;;16.45;69.83;99879.22;5040365;28;20045;-67
2022/09/14 09:23:28;;;;;;;8.65;1.77;;;;;;;16.53;70.69;99873.16;5016437;28;20073;-67
2022/09/14 09:26:06;;;;;;;17.58;2.50;;;;;;;16.56;69.53;99872.84;5044707;28;20056;-67
2022/09/14 09:28:33;;;;;;;10.48;2.15;;;;;;;16.57;67.92;99885.19;5034747;28;20551;-66
2022/09/14 09:31:04;;;;;;;12.30;2.17;;;;;;;16.48;67.98;99870.13;5052027;28;20509;-66
2022/09/14 09:33:31;;;;;;;8.93;1.92;;;;;;;16.51;68.60;99871.63;5016513;28;20056;-67
2022/09/14 09:35:59;;;;;;;10.75;2.00;;;;;;;16.52;67.09;99876.78;5038149;28;20044;-67
2022/09/14 09:38:27;;;;;;;10.65;2.58;;;;;;;16.49;66.70;99862.97;5039356;28;20052;-67
2022/09/14 09:41:10;;;;;;;6.57;1.50;;;;;;;16.61;67.00;99867.09;5047372;28;20049;-67
2022/09/14 09:44:08;;;;;;;12.18;2.22;;;;;;;16.84;67.31;99864.91;5027686;28;20072;-67
2022/09/14 09:46:50;;;;;;;11.98;3.15;;;;;;;16.91;66.34;99861.50;5041411;28;20049;-67
2022/09/14 09:49:21;;;;;;;8.27;1.92;;;;;;;16.94;66.94;99860.38;5016799;28;20400;-67
2022/09/14 09:51:49;;;;;;;7.18;1.70;;;;;;;17.05;66.87;99861.97;5051616;28;20051;-67
2022/09/14 09:54:29;;;;;;;9.13;1.70;;;;;;;17.16;65.07;99859.13;5016403;28;20045;-67
2022/09/14 09:56:57;;;;;;;10.60;2.50;;;;;;;17.11;64.80;99856.91;5041488;28;20073;-67
2022/09/14 09:59:39;;;;;;;5.47;1.50;;;;;;;17.14;65.72;99856.59;5037215;28;20167;-67
2022/09/14 10:02:26;;;;;;;12.30;2.85;;;;;;;17.08;63.77;99859.03;5045555;28;20536;-67
2022/09/14 10:04:57;;;;;;;12.70;2.25;;;;;;;17.03;63.47;99850.69;5047848;28;20053;-67
2022/09/14 10:07:25;;;;;;;12.23;2.50;;;;;;;17.07;64.11;99844.06;5050677;28;20053;-67
2022/09/14 10:10:12;;;;;;;14.88;2.00;;;;;;;17.16;64.77;99835.19;5039984;28;20055;-67
2022/09/14 10:12:46;;;;;;;8.70;2.20;;;;;;;17.27;65.57;99842.91;5041934;28;20055;-67
2022/09/14 10:15:20;;;;;;;15.18;2.63;;;;;;;17.21;60.87;99847.03;5027735;28;20129;-68
2022/09/14 10:18:03;;;;;;;9.52;2.22;;;;;;;17.08;61.07;99840.41;5036865;28;20048;-67
2022/09/14 10:20:30;;;;;;;10.48;2.40;;;;;;;17.03;60.96;99837.38;5049608;28;20053;-67
2022/09/14 10:23:16;;;;;;;11.30;2.63;;;;;;;17.03;60.41;99848.84;5038452;28;20052;-67
2022/09/14 10:26:12;;;;;;;9.63;2.38;;;;;;;16.97;60.89;99838.78;5047814;28;20510;-67
2022/09/14 10:28:42;;;;;;;10.32;1.98;;;;;;;17.00;61.82;99843.81;5054786;28;20053;-67
2022/09/14 10:31:19;;;;;;;5.88;1.90;;;;;;;17.11;62.45;99840.09;5023796;28;20045;-67
2022/09/14 10:33:52;;;;;;;12.75;2.05;;;;;;;17.26;62.59;99838.59;5049722;28;20053;-67
2022/09/14 10:36:38;;;;;;;15.30;3.13;;;;;;;17.37;62.28;99834.84;5020910;28;20053;-68
2022/09/14 10:39:22;;;;;;;9.60;2.30;;;;;;;17.44;61.25;99830.59;5048636;28;20132;-66
2022/09/14 10:42:00;;;;;;;8.85;2.13;;;;;;;17.51;61.06;99828.16;5023963;28;20045;-67
2022/09/14 10:44:49;;;;;;;8.45;2.60;;;;;;;17.64;61.39;99825.91;5044156;28;20072;-67
2022/09/14 10:47:34;;;;;;;8.50;2.55;;;;;;;17.78;61.12;99820.06;5029621;28;20583;-68
2022/09/14 10:50:31;;;;;;;14.35;2.53;;;;;;;17.90;61.45;99816.16;5044493;28;20051;-67
2022/09/14 10:53:08;;;;;;;;;;;;;;;18.03;60.94;99820.22;5042825;28;20049;-60
2022/09/14 10:55:54;;;;;;;11.05;2.30;;;;;;;18.17;61.70;99815.13;5043812;28;20011;-60
2022/09/14 10:58:38;;;;;;;9.85;2.72;;;;;;;18.40;61.15;99817.22;5043208;28;20168;-59
2022/09/14 11:01:28;;;;;;;9.52;2.25;;;;;;;18.37;58.97;99815.75;5022289;28;20051;-60
2022/09/14 11:04:16;;;;;;;10.77;2.70;;;;;;;18.43;59.09;99811.59;5039880;28;20057;-62
2022/09/14 11:06:57;;;;;;;11.10;2.47;;;;;;;18.55;60.16;99814.78;5012101;28;20059;-61
2022/09/14 11:09:41;;;;;;;11.90;2.65;;;;;;;18.84;59.69;99812.56;5059698;28;20048;-62
2022/09/14 11:12:44;;;;;;;12.98;2.90;;;;;;;19.01;56.45;99809.94;5033100;28;20144;-67
2022/09/14 11:15:32;;;;;;;9.95;1.58;;;;;;;18.93;56.93;99830.25;4971406;28;20050;-67
2022/09/14 11:18:08;;;;;;;10.05;1.88;;;;;;;18.62;57.24;99821.16;5042866;28;20133;-66
2022/09/14 11:20:57;;;;;;;9.25;2.22;;;;;;;18.60;57.85;99813.31;5042960;28;20371;-67
2022/09/14 11:23:48;;;;;;;11.52;1.85;;;;;;;18.65;58.96;99813.66;5042269;28;20441;-67
2022/09/14 11:26:30;;;;;;;9.85;2.33;;;;;;;18.54;57.68;99818.44;5047507;28;20041;-67
2022/09/14 11:29:28;;;;;;;6.93;2.03;;;;;;;18.43;57.26;99822.25;5030671;28;20049;-66
2022/09/14 11:32:05;;;;;;;8.52;2.15;;;;;;;18.36;58.30;99821.22;5019773;28;20411;-65
2022/09/14 11:35:00;;;;;;;8.15;1.60;;;;;;;18.56;57.33;99814.63;5028689;28;20858;-65
2022/09/14 11:37:39;;;;;;;13.48;2.03;;;;;;;18.58;58.27;99825.13;5054965;28;20053;-66
2022/09/14 11:40:21;;;;;;;7.85;1.95;;;;;;;18.65;57.30;99819.00;5017798;28;20049;-67
2022/09/14 11:42:57;;;;;;;7.43;1.90;;;;;;;18.52;57.22;99820.44;5035512;28;20139;-67
2022/09/14 11:45:34;;;;;;;7.90;2.20;;;;;;;18.47;56.94;99820.94;5042192;28;20053;-67
2022/09/14 11:48:08;;;;;;;10.13;2.22;;;;;;;18.40;57.13;99814.56;5016689;28;20520;-67
2022/09/14 11:51:14;;;;;;;9.68;1.77;;;;;;;18.41;57.63;99809.06;5041527;28;20778;-67
2022/09/14 11:53:42;;;;;;;5.00;2.00;;;;;;;18.54;57.92;99816.63;5039262;28;20057;-67
2022/09/14 11:56:25;;;;;;;21.65;2.80;;;;;;;18.79;57.49;99814.06;5029325;28;20413;-66